sensor_id;sensor_type;location;lat;lon;timestamp;pressure;altitude;pressure_sealevel;temperature;humidity
59367;BME280;45163;47.690;11.770;2023-02-15T00:01:51;94470.34;;;-2.58;100.00
59367;BME280;45163;47.690;11.770;2023-02-15T00:04:21;94470.81;;;-2.56;100.00
59367;BME280;45163;47.690;11.770;2023-02-15T00:06:48;94468.31;;;-2.61;100.00
59367;BME280;45163;47.690;11.770;2023-02-15T00:09:14;94468.75;;;-2.50;100.00
59367;BME280;45163;47.690;11.770;2023-02-15T00:11:40;94469.19;;;-2.48;100.00
59367;BME280;45163;47.690;11.770;2023-02-15T00:14:13;94467.13;;;-2.42;100.00
59367;BME280;45163;47.690;11.770;2023-02-15T00:16:41;94470.44;;;-2.45;100.00
59367;BME280;45163;47.690;11.770;2023-02-15T00:19:08;94468.41;;;-2.48;100.00
59367;BME280;45163;47.690;11.770;2023-02-15T00:21:36;94466.06;;;-2.50;100.00
59367;BME280;45163;47.690;11.770;2023-02-15T00:24:04;94458.00;;;-2.41;100.00
59367;BME280;45163;47.690;11.770;2023-02-15T00:26:30;94460.19;;;-2.43;100.00
59367;BME280;45163;47.690;11.770;2023-02-15T00:28:57;94448.09;;;-2.41;100.00
59367;BME280;45163;47.690;11.770;2023-02-15T00:31:28;94444.63;;;-2.41;100.00
59367;BME280;45163;47.690;11.770;2023-02-15T00:34:22;94445.06;;;-2.39;100.00
59367;BME280;45163;47.690;11.770;2023-02-15T00:36:46;94437.44;;;-2.49;100.00
59367;BME280;45163;47.690;11.770;2023-02-15T00:39:13;94443.63;;;-2.58;100.00
59367;BME280;45163;47.690;11.770;2023-02-15T00:41:43;94443.53;;;-2.70;100.00
59367;BME280;45163;47.690;11.770;2023-02-15T00:44:09;94448.69;;;-2.65;100.00
59367;BME280;45163;47.690;11.770;2023-02-15T00:46:36;94433.59;;;-2.40;100.00
59367;BME280;45163;47.690;11.770;2023-02-15T00:49:03;94430.59;;;-2.38;100.00
59367;BME280;45163;47.690;11.770;2023-02-15T00:51:30;94433.03;;;-2.45;100.00
59367;BME280;45163;47.690;11.770;2023-02-15T00:53:56;94432.75;;;-2.53;100.00
59367;BME280;45163;47.690;11.770;2023-02-15T00:56:22;94429.56;;;-2.46;100.00
59367;BME280;45163;47.690;11.770;2023-02-15T00:58:48;94423.88;;;-2.44;100.00
59367;BME280;45163;47.690;11.770;2023-02-15T01:01:16;94429.31;;;-2.32;100.00
59367;BME280;45163;47.690;11.770;2023-02-15T01:03:43;94421.56;;;-2.25;100.00
59367;BME280;45163;47.690;11.770;2023-02-15T01:06:10;94429.81;;;-2.39;100.00
59367;BME280;45163;47.690;11.770;2023-02-15T01:08:37;94427.41;;;-2.53;100.00
59367;BME280;45163;47.690;11.770;2023-02-15T01:11:06;94421.78;;;-2.60;100.00
59367;BME280;45163;47.690;11.770;2023-02-15T01:13:33;94432.38;;;-2.72;100.00
59367;BME280;45163;47.690;11.770;2023-02-15T01:15:59;94429.59;;;-2.76;100.00
59367;BME280;45163;47.690;11.770;2023-02-15T01:18:25;94423.44;;;-2.76;100.00
59367;BME280;45163;47.690;11.770;2023-02-15T01:20:52;94425.47;;;-2.73;100.00
59367;BME280;45163;47.690;11.770;2023-02-15T01:23:18;94422.56;;;-2.38;100.00
59367;BME280;45163;47.690;11.770;2023-02-15T01:25:44;94421.56;;;-2.25;100.00
59367;BME280;45163;47.690;11.770;2023-02-15T01:28:10;94414.25;;;-2.37;100.00
59367;BME280;45163;47.690;11.770;2023-02-15T01:30:37;94426.41;;;-2.48;100.00
59367;BME280;45163;47.690;11.770;2023-02-15T01:33:03;94420.50;;;-2.54;100.00
59367;BME280;45163;47.690;11.770;2023-02-15T01:35:29;94419.72;;;-2.54;100.00
59367;BME280;45163;47.690;11.770;2023-02-15T01:37:55;94418.31;;;-2.60;100.00
59367;BME280;45163;47.690;11.770;2023-02-15T01:40:22;94422.31;;;-2.66;100.00
59367;BME280;45163;47.690;11.770;2023-02-15T01:42:53;94419.84;;;-2.80;100.00
59367;BME280;45163;47.690;11.770;2023-02-15T01:55:48;94403.94;;;-2.77;100.00
59367;BME280;45163;47.690;11.770;2023-02-15T01:58:16;94399.22;;;-2.71;100.00
59367;BME280;45163;47.690;11.770;2023-02-15T02:00:43;94406.06;;;-2.61;100.00
59367;BME280;45163;47.690;11.770;2023-02-15T02:03:09;94403.81;;;-2.51;100.00
59367;BME280;45163;47.690;11.770;2023-02-15T02:05:36;94397.28;;;-2.62;100.00
59367;BME280;45163;47.690;11.770;2023-02-15T02:08:03;94402.59;;;-2.83;100.00
59367;BME280;45163;47.690;11.770;2023-02-15T02:10:29;94405.50;;;-2.96;100.00
59367;BME280;45163;47.690;11.770;2023-02-15T02:12:58;94394.34;;;-2.98;100.00
59367;BME280;45163;47.690;11.770;2023-02-15T02:18:23;94393.31;;;-2.85;100.00
59367;BME280;45163;47.690;11.770;2023-02-15T02:34:33;94370.75;;;-2.25;100.00
59367;BME280;45163;47.690;11.770;2023-02-15T02:40:06;94363.13;;;-2.56;100.00
59367;BME280;45163;47.690;11.770;2023-02-15T02:42:41;94360.69;;;-2.70;100.00
59367;BME280;45163;47.690;11.770;2023-02-15T02:45:15;94359.19;;;-2.80;100.00
59367;BME280;45163;47.690;11.770;2023-02-15T02:48:04;94365.63;;;-2.81;100.00
59367;BME280;45163;47.690;11.770;2023-02-15T02:50:32;94363.16;;;-2.86;100.00
59367;BME280;45163;47.690;11.770;2023-02-15T02:52:58;94363.28;;;-2.82;100.00
59367;BME280;45163;47.690;11.770;2023-02-15T02:55:31;94365.19;;;-2.83;100.00
59367;BME280;45163;47.690;11.770;2023-02-15T03:00:54;94359.94;;;-3.00;100.00
59367;BME280;45163;47.690;11.770;2023-02-15T03:05:56;94359.31;;;-3.06;100.00
59367;BME280;45163;47.690;11.770;2023-02-15T03:08:25;94357.75;;;-3.07;100.00
59367;BME280;45163;47.690;11.770;2023-02-15T03:10:56;94345.63;;;-2.95;100.00
59367;BME280;45163;47.690;11.770;2023-02-15T03:13:23;94350.50;;;-2.77;100.00
59367;BME280;45163;47.690;11.770;2023-02-15T03:15:50;94342.78;;;-2.48;100.00
59367;BME280;45163;47.690;11.770;2023-02-15T03:18:40;94345.25;;;-2.43;100.00
59367;BME280;45163;47.690;11.770;2023-02-15T03:21:09;94336.13;;;-2.21;100.00
59367;BME280;45163;47.690;11.770;2023-02-15T03:23:59;94338.91;;;-2.39;100.00
59367;BME280;45163;47.690;11.770;2023-02-15T03:26:26;94326.66;;;-2.40;100.00
59367;BME280;45163;47.690;11.770;2023-02-15T03:28:55;94330.06;;;-2.52;100.00
59367;BME280;45163;47.690;11.770;2023-02-15T03:31:26;94328.31;;;-2.68;100.00
59367;BME280;45163;47.690;11.770;2023-02-15T03:33:58;94330.66;;;-2.67;100.00
59367;BME280;45163;47.690;11.770;2023-02-15T03:36:39;94329.63;;;-2.74;100.00
59367;BME280;45163;47.690;11.770;2023-02-15T03:41:46;94342.31;;;-2.92;100.00
59367;BME280;45163;47.690;11.770;2023-02-15T03:44:27;94339.31;;;-2.91;100.00
59367;BME280;45163;47.690;11.770;2023-02-15T03:46:59;94336.03;;;-2.96;100.00
59367;BME280;45163;47.690;11.770;2023-02-15T03:49:35;94330.66;;;-3.17;100.00
59367;BME280;45163;47.690;11.770;2023-02-15T03:52:03;94330.44;;;-3.33;100.00
59367;BME280;45163;47.690;11.770;2023-02-15T03:54:33;94335.66;;;-3.45;100.00
59367;BME280;45163;47.690;11.770;2023-02-15T03:57:15;94335.31;;;-3.44;100.00
59367;BME280;45163;47.690;11.770;2023-02-15T04:00:04;94335.03;;;-3.42;100.00
59367;BME280;45163;47.690;11.770;2023-02-15T04:03:03;94350.28;;;-3.22;100.00
59367;BME280;45163;47.690;11.770;2023-02-15T04:05:32;94343.38;;;-2.93;100.00
59367;BME280;45163;47.690;11.770;2023-02-15T04:07:58;94345.91;;;-2.88;100.00
59367;BME280;45163;47.690;11.770;2023-02-15T04:10:24;94343.88;;;-2.70;100.00
59367;BME280;45163;47.690;11.770;2023-02-15T04:13:09;94350.97;;;-2.12;100.00
59367;BME280;45163;47.690;11.770;2023-02-15T04:15:35;94347.28;;;-2.40;100.00
59367;BME280;45163;47.690;11.770;2023-02-15T04:18:19;94346.31;;;-2.57;100.00
59367;BME280;45163;47.690;11.770;2023-02-15T04:20:46;94344.19;;;-2.72;100.00
59367;BME280;45163;47.690;11.770;2023-02-15T04:23:32;94344.94;;;-2.84;100.00
59367;BME280;45163;47.690;11.770;2023-02-15T04:26:16;94350.34;;;-3.01;100.00
59367;BME280;45163;47.690;11.770;2023-02-15T04:28:42;94356.16;;;-2.99;100.00
59367;BME280;45163;47.690;11.770;2023-02-15T04:31:08;94360.13;;;-3.05;100.00
59367;BME280;45163;47.690;11.770;2023-02-15T04:33:34;94366.97;;;-2.95;100.00
59367;BME280;45163;47.690;11.770;2023-02-15T04:36:03;94363.94;;;-3.15;100.00
59367;BME280;45163;47.690;11.770;2023-02-15T04:38:29;94361.59;;;-3.16;100.00
59367;BME280;45163;47.690;11.770;2023-02-15T04:40:55;94371.53;;;-3.26;100.00
59367;BME280;45163;47.690;11.770;2023-02-15T04:43:21;94374.97;;;-3.25;100.00
59367;BME280;45163;47.690;11.770;2023-02-15T04:45:48;94374.97;;;-3.25;100.00
59367;BME280;45163;47.690;11.770;2023-02-15T04:48:15;94381.09;;;-3.24;100.00
59367;BME280;45163;47.690;11.770;2023-02-15T04:50:41;94379.16;;;-3.15;100.00
59367;BME280;45163;47.690;11.770;2023-02-15T04:53:07;94381.41;;;-3.17;100.00
59367;BME280;45163;47.690;11.770;2023-02-15T04:55:33;94389.59;;;-3.31;100.00
59367;BME280;45163;47.690;11.770;2023-02-15T04:57:59;94382.72;;;-3.41;100.00
59367;BME280;45163;47.690;11.770;2023-02-15T05:00:25;94386.19;;;-3.40;100.00
59367;BME280;45163;47.690;11.770;2023-02-15T05:02:53;94386.66;;;-3.38;100.00
59367;BME280;45163;47.690;11.770;2023-02-15T05:05:19;94393.59;;;-3.46;100.00
59367;BME280;45163;47.690;11.770;2023-02-15T05:07:45;94392.47;;;-3.45;100.00
59367;BME280;45163;47.690;11.770;2023-02-15T05:10:11;94390.75;;;-3.41;100.00
59367;BME280;45163;47.690;11.770;2023-02-15T05:12:37;94387.72;;;-3.31;100.00
59367;BME280;45163;47.690;11.770;2023-02-15T05:15:03;94396.19;;;-3.29;100.00
59367;BME280;45163;47.690;11.770;2023-02-15T05:17:29;94395.34;;;-3.12;100.00
59367;BME280;45163;47.690;11.770;2023-02-15T05:19:55;94387.50;;;-3.17;100.00
59367;BME280;45163;47.690;11.770;2023-02-15T05:22:21;94394.59;;;-3.21;100.00
59367;BME280;45163;47.690;11.770;2023-02-15T05:24:47;94396.50;;;-3.21;100.00
59367;BME280;45163;47.690;11.770;2023-02-15T05:27:31;94396.00;;;-3.23;100.00
59367;BME280;45163;47.690;11.770;2023-02-15T05:30:15;94397.91;;;-3.24;100.00
59367;BME280;45163;47.690;11.770;2023-02-15T05:32:41;94397.16;;;-3.33;100.00
59367;BME280;45163;47.690;11.770;2023-02-15T05:35:11;94402.81;;;-3.43;100.00
59367;BME280;45163;47.690;11.770;2023-02-15T05:37:38;94400.84;;;-3.55;100.00
59367;BME280;45163;47.690;11.770;2023-02-15T05:40:04;94406.31;;;-3.60;100.00
59367;BME280;45163;47.690;11.770;2023-02-15T05:42:30;94397.53;;;-3.61;100.00
59367;BME280;45163;47.690;11.770;2023-02-15T05:44:56;94399.44;;;-3.61;100.00
59367;BME280;45163;47.690;11.770;2023-02-15T05:47:22;94405.38;;;-3.56;100.00
59367;BME280;45163;47.690;11.770;2023-02-15T05:49:48;94402.53;;;-3.42;100.00
59367;BME280;45163;47.690;11.770;2023-02-15T05:52:14;94402.78;;;-3.35;100.00
59367;BME280;45163;47.690;11.770;2023-02-15T05:54:49;94408.91;;;-3.26;100.00
59367;BME280;45163;47.690;11.770;2023-02-15T05:57:15;94411.25;;;-3.24;100.00
59367;BME280;45163;47.690;11.770;2023-02-15T05:59:41;94409.44;;;-3.03;100.00
59367;BME280;45163;47.690;11.770;2023-02-15T06:02:07;94407.31;;;-2.59;100.00
59367;BME280;45163;47.690;11.770;2023-02-15T06:04:33;94394.81;;;-2.04;100.00
59367;BME280;45163;47.690;11.770;2023-02-15T06:06:59;94398.59;;;-1.72;100.00
59367;BME280;45163;47.690;11.770;2023-02-15T06:09:24;94399.63;;;-1.64;100.00
59367;BME280;45163;47.690;11.770;2023-02-15T06:11:51;94396.59;;;-1.75;100.00
59367;BME280;45163;47.690;11.770;2023-02-15T06:14:17;94390.75;;;-1.89;100.00
59367;BME280;45163;47.690;11.770;2023-02-15T06:16:43;94387.69;;;-2.00;100.00
59367;BME280;45163;47.690;11.770;2023-02-15T06:19:09;94388.28;;;-1.94;100.00
59367;BME280;45163;47.690;11.770;2023-02-15T06:21:35;94387.16;;;-1.93;100.00
59367;BME280;45163;47.690;11.770;2023-02-15T06:24:01;94381.63;;;-1.76;100.00
59367;BME280;45163;47.690;11.770;2023-02-15T06:26:27;94378.34;;;-1.94;100.00
59367;BME280;45163;47.690;11.770;2023-02-15T06:28:53;94386.78;;;-2.04;100.00
59367;BME280;45163;47.690;11.770;2023-02-15T06:31:18;94394.69;;;-2.29;100.00
59367;BME280;45163;47.690;11.770;2023-02-15T06:33:44;94397.75;;;-2.39;100.00
59367;BME280;45163;47.690;11.770;2023-02-15T06:36:10;94398.50;;;-2.59;100.00
59367;BME280;45163;47.690;11.770;2023-02-15T06:38:38;94396.84;;;-2.72;100.00
59367;BME280;45163;47.690;11.770;2023-02-15T06:41:04;94412.59;;;-2.71;100.00
59367;BME280;45163;47.690;11.770;2023-02-15T06:43:30;94401.16;;;-2.51;100.00
59367;BME280;45163;47.690;11.770;2023-02-15T06:45:56;94416.16;;;-2.37;100.00
59367;BME280;45163;47.690;11.770;2023-02-15T06:48:22;94413.72;;;-2.30;100.00
59367;BME280;45163;47.690;11.770;2023-02-15T06:50:48;94408.34;;;-2.21;100.00
59367;BME280;45163;47.690;11.770;2023-02-15T06:53:14;94411.97;;;-2.26;100.00
59367;BME280;45163;47.690;11.770;2023-02-15T06:55:40;94412.69;;;-2.17;100.00
59367;BME280;45163;47.690;11.770;2023-02-15T06:58:06;94410.19;;;-2.43;100.00
59367;BME280;45163;47.690;11.770;2023-02-15T07:00:32;94408.56;;;-2.35;100.00
59367;BME280;45163;47.690;11.770;2023-02-15T07:02:59;94402.97;;;-2.01;100.00
59367;BME280;45163;47.690;11.770;2023-02-15T07:05:26;94398.31;;;-1.91;100.00
59367;BME280;45163;47.690;11.770;2023-02-15T07:07:57;94400.75;;;-1.98;100.00
59367;BME280;45163;47.690;11.770;2023-02-15T07:10:23;94404.06;;;-2.02;100.00
59367;BME280;45163;47.690;11.770;2023-02-15T07:12:49;94399.63;;;-1.97;100.00
59367;BME280;45163;47.690;11.770;2023-02-15T07:15:17;94403.16;;;-1.72;100.00
59367;BME280;45163;47.690;11.770;2023-02-15T07:17:49;94407.31;;;-1.17;100.00
59367;BME280;45163;47.690;11.770;2023-02-15T07:20:18;94403.78;;;-0.72;100.00
59367;BME280;45163;47.690;11.770;2023-02-15T07:22:45;94397.66;;;-0.08;100.00
59367;BME280;45163;47.690;11.770;2023-02-15T07:25:12;94394.25;;;0.07;100.00
59367;BME280;45163;47.690;11.770;2023-02-15T07:27:38;94390.25;;;1.20;100.00
59367;BME280;45163;47.690;11.770;2023-02-15T07:30:08;94382.22;;;1.71;100.00
59367;BME280;45163;47.690;11.770;2023-02-15T07:32:34;94381.88;;;2.12;100.00
59367;BME280;45163;47.690;11.770;2023-02-15T07:35:00;94375.50;;;2.20;100.00
59367;BME280;45163;47.690;11.770;2023-02-15T07:37:27;94378.56;;;2.18;100.00
59367;BME280;45163;47.690;11.770;2023-02-15T07:39:53;94379.53;;;2.10;100.00
59367;BME280;45163;47.690;11.770;2023-02-15T07:42:19;94376.63;;;2.19;100.00
59367;BME280;45163;47.690;11.770;2023-02-15T07:44:46;94368.69;;;2.45;100.00
59367;BME280;45163;47.690;11.770;2023-02-15T07:47:12;94374.28;;;2.79;100.00
59367;BME280;45163;47.690;11.770;2023-02-15T07:49:39;94370.81;;;3.24;100.00
59367;BME280;45163;47.690;11.770;2023-02-15T07:52:05;94377.22;;;3.39;100.00
59367;BME280;45163;47.690;11.770;2023-02-15T07:54:31;94372.28;;;3.71;100.00
59367;BME280;45163;47.690;11.770;2023-02-15T07:56:57;94369.22;;;3.73;100.00
59367;BME280;45163;47.690;11.770;2023-02-15T07:59:23;94361.50;;;4.02;100.00
59367;BME280;45163;47.690;11.770;2023-02-15T08:01:50;94363.16;;;4.77;100.00
59367;BME280;45163;47.690;11.770;2023-02-15T08:04:16;94354.88;;;5.48;100.00
59367;BME280;45163;47.690;11.770;2023-02-15T08:06:43;94359.78;;;5.90;100.00
59367;BME280;45163;47.690;11.770;2023-02-15T08:09:09;94354.34;;;5.87;100.00
59367;BME280;45163;47.690;11.770;2023-02-15T08:11:37;94353.59;;;5.90;100.00
59367;BME280;45163;47.690;11.770;2023-02-15T08:14:13;94342.97;;;6.36;100.00
59367;BME280;45163;47.690;11.770;2023-02-15T08:16:53;94347.06;;;5.98;100.00
59367;BME280;45163;47.690;11.770;2023-02-15T08:19:26;94340.66;;;6.38;100.00
59367;BME280;45163;47.690;11.770;2023-02-15T08:24:25;94326.09;;;7.11;100.00
59367;BME280;45163;47.690;11.770;2023-02-15T08:26:52;94338.50;;;7.55;100.00
59367;BME280;45163;47.690;11.770;2023-02-15T08:29:20;94334.91;;;8.08;100.00
59367;BME280;45163;47.690;11.770;2023-02-15T08:31:48;94331.06;;;7.73;100.00
59367;BME280;45163;47.690;11.770;2023-02-15T08:34:17;94332.28;;;7.18;100.00
59367;BME280;45163;47.690;11.770;2023-02-15T08:36:44;94324.47;;;6.70;100.00
59367;BME280;45163;47.690;11.770;2023-02-15T08:39:14;94324.81;;;6.55;100.00
59367;BME280;45163;47.690;11.770;2023-02-15T08:41:45;94321.41;;;7.43;100.00
59367;BME280;45163;47.690;11.770;2023-02-15T08:44:12;94315.97;;;7.61;100.00
59367;BME280;45163;47.690;11.770;2023-02-15T08:46:42;94321.66;;;8.20;100.00
59367;BME280;45163;47.690;11.770;2023-02-15T08:49:09;94310.72;;;8.28;100.00
59367;BME280;45163;47.690;11.770;2023-02-15T08:51:37;94309.44;;;8.61;96.85
59367;BME280;45163;47.690;11.770;2023-02-15T08:54:06;94309.97;;;9.04;90.29
59367;BME280;45163;47.690;11.770;2023-02-15T08:56:38;94302.81;;;8.65;86.52
59367;BME280;45163;47.690;11.770;2023-02-15T08:59:06;94310.50;;;8.81;85.84
59367;BME280;45163;47.690;11.770;2023-02-15T09:01:34;94308.97;;;8.77;85.17
59367;BME280;45163;47.690;11.770;2023-02-15T09:04:05;94311.28;;;10.16;81.49
59367;BME280;45163;47.690;11.770;2023-02-15T09:06:34;94300.88;;;10.72;73.04
59367;BME280;45163;47.690;11.770;2023-02-15T09:09:00;94306.09;;;11.17;72.60
59367;BME280;45163;47.690;11.770;2023-02-15T09:11:29;94304.66;;;12.03;65.70
59367;BME280;45163;47.690;11.770;2023-02-15T09:14:00;94304.50;;;12.34;59.24
59367;BME280;45163;47.690;11.770;2023-02-15T09:16:28;94309.47;;;12.39;54.37
59367;BME280;45163;47.690;11.770;2023-02-15T09:18:55;94297.16;;;12.67;55.39
59367;BME280;45163;47.690;11.770;2023-02-15T09:21:24;94296.19;;;13.30;56.61
59367;BME280;45163;47.690;11.770;2023-02-15T09:23:55;94297.13;;;13.56;49.49
59367;BME280;45163;47.690;11.770;2023-02-15T09:26:23;94297.31;;;13.65;44.83
59367;BME280;45163;47.690;11.770;2023-02-15T09:28:52;94299.38;;;14.06;45.80
59367;BME280;45163;47.690;11.770;2023-02-15T09:31:24;94303.97;;;13.80;43.47
59367;BME280;45163;47.690;11.770;2023-02-15T09:33:50;94301.78;;;13.59;46.68
59367;BME280;45163;47.690;11.770;2023-02-15T09:38:52;94302.41;;;15.21;45.22
59367;BME280;45163;47.690;11.770;2023-02-15T09:59:17;94296.06;;;19.92;35.40
59367;BME280;45163;47.690;11.770;2023-02-15T10:25:46;94301.56;;;22.37;26.55
59367;BME280;45163;47.690;11.770;2023-02-15T10:28:06;94292.94;;;22.00;23.92
59367;BME280;45163;47.690;11.770;2023-02-15T10:31:23;94293.81;;;23.20;25.48
59367;BME280;45163;47.690;11.770;2023-02-15T10:40:00;94283.63;;;21.03;23.67
59367;BME280;45163;47.690;11.770;2023-02-15T10:42:40;94287.94;;;21.69;24.11
59367;BME280;45163;47.690;11.770;2023-02-15T10:50:50;94279.50;;;22.34;23.02
59367;BME280;45163;47.690;11.770;2023-02-15T11:07:23;94258.09;;;22.20;23.01
59367;BME280;45163;47.690;11.770;2023-02-15T11:12:56;94246.44;;;22.62;21.11
59367;BME280;45163;47.690;11.770;2023-02-15T11:18:31;94250.53;;;23.88;20.58
59367;BME280;45163;47.690;11.770;2023-02-15T11:21:07;94248.16;;;23.38;20.95
59367;BME280;45163;47.690;11.770;2023-02-15T11:23:38;94243.91;;;22.64;21.88
59367;BME280;45163;47.690;11.770;2023-02-15T11:26:13;94243.38;;;24.29;21.46
59367;BME280;45163;47.690;11.770;2023-02-15T11:28:49;94239.47;;;24.75;18.92
59367;BME280;45163;47.690;11.770;2023-02-15T11:31:26;94232.78;;;24.39;20.08
59367;BME280;45163;47.690;11.770;2023-02-15T11:33:59;94223.34;;;23.08;21.75
59367;BME280;45163;47.690;11.770;2023-02-15T11:36:34;94224.22;;;24.00;20.93
59367;BME280;45163;47.690;11.770;2023-02-15T11:39:09;94214.56;;;24.66;18.80
59367;BME280;45163;47.690;11.770;2023-02-15T11:41:38;94218.28;;;24.35;20.66
59367;BME280;45163;47.690;11.770;2023-02-15T11:44:19;94210.53;;;23.96;20.47
59367;BME280;45163;47.690;11.770;2023-02-15T11:46:46;94210.13;;;23.34;20.52
59367;BME280;45163;47.690;11.770;2023-02-15T11:49:27;94205.13;;;23.81;20.86
59367;BME280;45163;47.690;11.770;2023-02-15T11:51:55;94200.84;;;25.86;20.34
59367;BME280;45163;47.690;11.770;2023-02-15T11:54:30;94193.19;;;25.98;19.63
59367;BME280;45163;47.690;11.770;2023-02-15T11:57:14;94200.47;;;24.21;21.84
59367;BME280;45163;47.690;11.770;2023-02-15T11:59:49;94199.16;;;25.38;19.70
59367;BME280;45163;47.690;11.770;2023-02-15T12:02:19;94181.09;;;24.89;20.68
59367;BME280;45163;47.690;11.770;2023-02-15T12:05:13;94181.59;;;25.54;20.00
59367;BME280;45163;47.690;11.770;2023-02-15T12:07:47;94181.53;;;25.88;19.47
59367;BME280;45163;47.690;11.770;2023-02-15T12:10:19;94184.13;;;25.52;19.54
59367;BME280;45163;47.690;11.770;2023-02-15T12:12:47;94182.34;;;25.61;19.30
59367;BME280;45163;47.690;11.770;2023-02-15T12:15:13;94177.88;;;26.10;16.24
59367;BME280;45163;47.690;11.770;2023-02-15T12:17:51;94171.00;;;26.11;18.13
59367;BME280;45163;47.690;11.770;2023-02-15T12:23:11;94165.84;;;25.51;15.48
59367;BME280;45163;47.690;11.770;2023-02-15T12:25:43;94165.53;;;26.47;16.34
59367;BME280;45163;47.690;11.770;2023-02-15T12:30:57;94165.81;;;25.68;17.33
59367;BME280;45163;47.690;11.770;2023-02-15T12:33:53;94158.78;;;25.11;17.11
59367;BME280;45163;47.690;11.770;2023-02-15T12:36:25;94150.97;;;26.54;16.79
59367;BME280;45163;47.690;11.770;2023-02-15T12:39:15;94154.97;;;26.17;16.10
59367;BME280;45163;47.690;11.770;2023-02-15T12:41:56;94155.69;;;26.70;15.57
59367;BME280;45163;47.690;11.770;2023-02-15T12:47:20;94156.47;;;25.15;19.09
59367;BME280;45163;47.690;11.770;2023-02-15T12:50:12;94150.63;;;24.74;18.71
59367;BME280;45163;47.690;11.770;2023-02-15T12:52:48;94148.03;;;25.60;18.94
59367;BME280;45163;47.690;11.770;2023-02-15T12:57:46;94138.78;;;23.97;19.24
59367;BME280;45163;47.690;11.770;2023-02-15T13:02:51;94132.06;;;25.44;18.69
59367;BME280;45163;47.690;11.770;2023-02-15T13:08:03;94125.09;;;25.73;17.79
59367;BME280;45163;47.690;11.770;2023-02-15T13:10:40;94123.69;;;25.38;17.74
59367;BME280;45163;47.690;11.770;2023-02-15T13:13:19;94121.41;;;25.20;16.98
59367;BME280;45163;47.690;11.770;2023-02-15T13:15:50;94125.50;;;24.74;18.94
59367;BME280;45163;47.690;11.770;2023-02-15T13:18:32;94120.84;;;25.49;17.92
59367;BME280;45163;47.690;11.770;2023-02-15T13:21:20;94118.25;;;25.79;17.73
59367;BME280;45163;47.690;11.770;2023-02-15T13:23:51;94113.97;;;25.56;17.41
59367;BME280;45163;47.690;11.770;2023-02-15T13:26:21;94113.03;;;25.31;16.71
59367;BME280;45163;47.690;11.770;2023-02-15T13:28:58;94107.22;;;24.56;16.63
59367;BME280;45163;47.690;11.770;2023-02-15T13:31:28;94103.66;;;24.89;17.39
59367;BME280;45163;47.690;11.770;2023-02-15T13:33:59;94104.84;;;25.44;17.58
59367;BME280;45163;47.690;11.770;2023-02-15T13:42:22;94092.50;;;24.78;17.20
59367;BME280;45163;47.690;11.770;2023-02-15T13:45:39;94100.38;;;24.96;17.43
59367;BME280;45163;47.690;11.770;2023-02-15T13:51:00;94090.19;;;24.82;16.72
59367;BME280;45163;47.690;11.770;2023-02-15T13:53:53;94083.09;;;23.54;18.43
59367;BME280;45163;47.690;11.770;2023-02-15T14:05:34;94085.53;;;21.82;20.77
59367;BME280;45163;47.690;11.770;2023-02-15T14:16:41;94082.84;;;19.10;23.17
59367;BME280;45163;47.690;11.770;2023-02-15T14:19:32;94089.03;;;19.29;24.10
59367;BME280;45163;47.690;11.770;2023-02-15T14:22:15;94087.16;;;18.36;24.28
59367;BME280;45163;47.690;11.770;2023-02-15T14:25:05;94091.41;;;17.76;25.55
59367;BME280;45163;47.690;11.770;2023-02-15T14:30:31;94091.06;;;16.51;27.26
59367;BME280;45163;47.690;11.770;2023-02-15T14:33:18;94098.78;;;16.34;27.93
59367;BME280;45163;47.690;11.770;2023-02-15T14:35:51;94097.16;;;16.15;28.34
59367;BME280;45163;47.690;11.770;2023-02-15T14:59:43;94096.75;;;15.03;32.57
59367;BME280;45163;47.690;11.770;2023-02-15T15:02:17;94099.31;;;14.98;33.04
59367;BME280;45163;47.690;11.770;2023-02-15T15:05:03;94097.97;;;15.02;33.31
59367;BME280;45163;47.690;11.770;2023-02-15T15:07:45;94096.47;;;14.88;33.86
59367;BME280;45163;47.690;11.770;2023-02-15T15:12:55;94104.94;;;14.30;36.05
59367;BME280;45163;47.690;11.770;2023-02-15T15:25:50;94112.19;;;12.79;41.64
59367;BME280;45163;47.690;11.770;2023-02-15T15:42:13;94102.56;;;9.43;61.14
59367;BME280;45163;47.690;11.770;2023-02-15T15:50:28;94117.19;;;8.85;63.79
59367;BME280;45163;47.690;11.770;2023-02-15T15:52:57;94107.38;;;8.53;65.78
59367;BME280;45163;47.690;11.770;2023-02-15T15:55:29;94107.47;;;8.35;65.98
59367;BME280;45163;47.690;11.770;2023-02-15T15:57:59;94110.34;;;8.14;66.10
59367;BME280;45163;47.690;11.770;2023-02-15T16:00:42;94117.41;;;8.04;67.27
59367;BME280;45163;47.690;11.770;2023-02-15T16:03:22;94112.47;;;7.85;68.93
59367;BME280;45163;47.690;11.770;2023-02-15T16:05:48;94120.38;;;7.61;70.20
59367;BME280;45163;47.690;11.770;2023-02-15T16:10:56;94126.28;;;7.35;72.75
59367;BME280;45163;47.690;11.770;2023-02-15T16:13:24;94129.81;;;7.21;73.37
59367;BME280;45163;47.690;11.770;2023-02-15T16:15:53;94139.56;;;7.08;74.72
59367;BME280;45163;47.690;11.770;2023-02-15T16:18:23;94131.81;;;6.99;78.73
59367;BME280;45163;47.690;11.770;2023-02-15T16:21:00;94129.91;;;6.82;80.28
59367;BME280;45163;47.690;11.770;2023-02-15T16:29:26;94138.44;;;6.27;86.10
59367;BME280;45163;47.690;11.770;2023-02-15T16:34:58;94155.84;;;6.04;89.89
59367;BME280;45163;47.690;11.770;2023-02-15T16:37:32;94158.06;;;5.84;90.48
59367;BME280;45163;47.690;11.770;2023-02-15T16:39:59;94154.59;;;5.80;90.37
59367;BME280;45163;47.690;11.770;2023-02-15T16:42:26;94156.13;;;5.74;90.88
59367;BME280;45163;47.690;11.770;2023-02-15T16:45:00;94157.25;;;5.62;92.26
59367;BME280;45163;47.690;11.770;2023-02-15T16:47:30;94169.94;;;5.47;93.29
59367;BME280;45163;47.690;11.770;2023-02-15T16:50:00;94173.72;;;5.25;94.66
59367;BME280;45163;47.690;11.770;2023-02-15T16:52:27;94180.19;;;5.10;95.70